Terminal Aerodrome Forecast
Issued by NWS

Home | Current Version | Previous Version | Text Only | Print | Product List | Glossary On
Versions: 1 2 3 4 5 6 7 8 9 10 11 12 13 14 15 16 17 18 19 20 21 22 23 24 25 26 27 28 29 30 31 32 33 34 35 36 37 38 39 40 41
000
FTUS44 KLZK 281334 AAA
TAFADF
TAF AMD
KADF 281334Z 2814/2912 08006KT P6SM OVC013 WS020/20040KT
     FM281700 17008G15KT P6SM BKN050 OVC100
     FM282000 16008G18KT P6SM BKN040 OVC080
     FM290100 14009KT P6SM OVC025 PROB30 2901/2906 5SM -TSRA
      OVC035CB=

USA.gov is the U.S. government's official web portal to all federal, state and local government web resources and services.